Time;durP1;ratioP1;P1;durP2;ratioP2;P2;SDS_P1;SDS_P2;PMS_P1;PMS_P2;Temp;Humidity;BMP_temperature;BMP_pressure;BME280_temperature;BME280_humidity;BME280_pressure;Samples;Min_cycle;Max_cycle;Signal;HPM_P1;HPM_P2
2021/11/09 00:00:31;;;;;;;9.80;4.78;;;9.10;82.10;;;;;;5031927;28;20116;-75
2021/11/09 00:02:58;;;;;;;10.70;5.05;;;9.20;82.00;;;;;;5030739;28;20021;-75
2021/11/09 00:05:26;;;;;;;10.45;5.20;;;9.20;82.00;;;;;;5029213;28;20026;-74
2021/11/09 00:07:59;;;;;;;11.52;5.10;;;9.10;81.90;;;;;;5030094;28;20030;-75
2021/11/09 00:10:27;;;;;;;10.82;4.47;;;9.10;81.90;;;;;;5030963;28;20120;-75
2021/11/09 00:13:00;;;;;;;8.82;4.63;;;9.10;82.00;;;;;;5031217;28;20106;-75
2021/11/09 00:15:27;;;;;;;9.98;4.40;;;9.10;82.00;;;;;;5032133;28;20040;-75
2021/11/09 00:17:56;;;;;;;10.32;4.80;;;9.10;81.90;;;;;;5025588;28;20120;-75
2021/11/09 00:20:24;;;;;;;8.98;4.43;;;9.10;81.90;;;;;;5020112;28;20092;-76
2021/11/09 00:22:50;;;;;;;9.50;4.72;;;9.10;81.80;;;;;;5028661;28;20048;-76
2021/11/09 00:25:17;;;;;;;7.40;4.65;;;9.20;81.90;;;;;;5023046;28;20025;-76
2021/11/09 00:27:42;;;;;;;9.70;4.40;;;9.20;81.80;;;;;;5015389;28;20029;-76
2021/11/09 00:30:10;;;;;;;9.77;4.70;;;9.10;81.70;;;;;;5023025;28;20090;-76
2021/11/09 00:32:38;;;;;;;9.52;4.55;;;9.20;81.80;;;;;;5014542;28;20115;-77
2021/11/09 00:35:06;;;;;;;11.43;4.22;;;9.20;81.70;;;;;;5023361;28;20025;-76
2021/11/09 00:37:31;;;;;;;9.52;4.00;;;9.10;81.70;;;;;;5027442;28;20555;-76
2021/11/09 00:39:57;;;;;;;9.68;4.35;;;9.10;81.70;;;;;;5017698;28;20030;-76
2021/11/09 00:42:23;;;;;;;8.25;4.03;;;9.10;81.80;;;;;;5032079;28;20068;-77
2021/11/09 00:44:48;;;;;;;9.15;4.38;;;9.00;81.80;;;;;;5018086;28;20029;-77
2021/11/09 00:47:14;;;;;;;12.40;4.60;;;9.00;81.80;;;;;;5019208;28;20029;-76
2021/11/09 00:49:40;;;;;;;7.82;4.22;;;9.00;81.90;;;;;;5032298;28;20473;-76
2021/11/09 00:52:06;;;;;;;8.15;4.65;;;9.00;81.90;;;;;;5029978;28;20025;-76
2021/11/09 00:54:34;;;;;;;9.98;4.18;;;9.00;82.00;;;;;;5027810;28;20060;-77
2021/11/09 00:56:59;;;;;;;10.25;4.70;;;8.90;82.10;;;;;;5030382;28;20033;-76
2021/11/09 00:59:25;;;;;;;10.02;4.60;;;8.90;82.20;;;;;;5027707;28;20109;-76
2021/11/09 01:01:51;;;;;;;8.27;4.18;;;8.90;82.20;;;;;;5029893;28;20084;-76
2021/11/09 01:04:17;;;;;;;9.98;4.28;;;8.90;82.20;;;;;;5031353;28;20034;-76
2021/11/09 01:06:43;;;;;;;12.48;4.75;;;9.00;82.20;;;;;;5029687;28;20439;-76
2021/11/09 01:09:08;;;;;;;9.57;4.90;;;8.90;82.10;;;;;;5029120;28;20034;-76
2021/11/09 01:11:34;;;;;;;12.13;5.15;;;8.80;82.10;;;;;;5031765;28;20395;-77
2021/11/09 01:14:01;;;;;;;11.38;5.03;;;8.80;82.20;;;;;;5031583;28;20476;-77
2021/11/09 01:16:27;;;;;;;9.90;4.63;;;8.80;82.20;;;;;;5029420;28;20476;-77
2021/11/09 01:18:56;;;;;;;9.27;4.25;;;8.80;82.20;;;;;;5047747;28;20037;-77
2021/11/09 01:21:22;;;;;;;10.93;4.55;;;8.80;82.20;;;;;;5022215;28;20033;-77
2021/11/09 01:23:52;;;;;;;9.25;4.63;;;8.80;82.20;;;;;;5031146;28;20021;-77
2021/11/09 01:26:18;;;;;;;13.00;5.15;;;8.80;82.20;;;;;;5025237;28;20464;-76
2021/11/09 01:28:47;;;;;;;11.75;4.75;;;8.80;82.10;;;;;;5032038;28;20033;-75
2021/11/09 01:31:12;;;;;;;11.30;5.35;;;8.80;82.10;;;;;;5021254;28;20033;-76
2021/11/09 01:33:39;;;;;;;9.88;4.80;;;8.80;82.10;;;;;;5033328;28;20087;-76
2021/11/09 01:36:05;;;;;;;11.50;6.05;;;8.80;82.10;;;;;;5023916;28;20439;-76
2021/11/09 01:38:32;;;;;;;10.60;5.13;;;8.80;82.20;;;;;;5026101;28;20367;-76
2021/11/09 01:40:58;;;;;;;10.05;5.13;;;8.80;82.20;;;;;;5034221;28;20025;-76
2021/11/09 01:43:26;;;;;;;9.85;4.93;;;8.70;82.20;;;;;;5042035;28;20028;-76
2021/11/09 01:45:52;;;;;;;9.90;4.78;;;8.70;82.80;;;;;;5033090;28;20480;-76
2021/11/09 01:48:18;;;;;;;11.15;4.97;;;8.70;82.20;;;;;;5021259;28;20061;-75
2021/11/09 01:50:47;;;;;;;9.57;5.00;;;8.70;82.30;;;;;;5019451;28;20491;-75
2021/11/09 01:53:13;;;;;;;10.88;5.32;;;8.60;82.30;;;;;;5041399;28;20380;-76
2021/11/09 01:55:40;;;;;;;12.18;6.15;;;8.60;82.30;;;;;;5053839;28;20034;-76
2021/11/09 01:58:07;;;;;;;8.90;5.13;;;8.60;82.30;;;;;;5020737;28;20109;-75
2021/11/09 02:00:39;;;;;;;15.32;5.15;;;8.60;82.40;;;;;;5039562;28;20037;-76
2021/11/09 02:03:06;;;;;;;11.82;5.72;;;8.50;82.30;;;;;;5043435;28;20020;-75
2021/11/09 02:05:32;;;;;;;16.52;6.07;;;8.50;82.30;;;;;;5026517;28;20029;-75
2021/11/09 02:07:59;;;;;;;14.55;7.07;;;8.50;82.30;;;;;;5014403;28;20032;-75
2021/11/09 02:10:28;;;;;;;11.00;5.32;;;8.40;82.40;;;;;;5021575;28;20052;-75
2021/11/09 02:12:54;;;;;;;10.45;4.82;;;8.40;82.40;;;;;;5027271;28;20538;-75
2021/11/09 02:15:20;;;;;;;13.60;5.78;;;8.40;82.40;;;;;;5022967;28;20387;-75
2021/11/09 02:17:47;;;;;;;12.13;5.80;;;8.40;82.50;;;;;;5024879;28;20526;-75
2021/11/09 02:20:16;;;;;;;12.73;6.70;;;8.40;82.50;;;;;;5012900;28;20041;-75
2021/11/09 02:22:42;;;;;;;11.52;6.20;;;8.30;82.40;;;;;;5041718;28;20489;-76
2021/11/09 02:25:10;;;;;;;12.70;5.43;;;8.30;82.60;;;;;;5029841;28;20120;-75
2021/11/09 02:27:37;;;;;;;10.20;5.30;;;8.30;82.70;;;;;;5016545;28;20496;-75
2021/11/09 02:30:06;;;;;;;10.90;5.70;;;8.30;82.60;;;;;;5024782;28;20041;-75
2021/11/09 02:32:31;;;;;;;13.75;5.88;;;8.30;82.60;;;;;;5029962;28;20435;-75
2021/11/09 02:34:57;;;;;;;11.48;5.43;;;8.30;82.60;;;;;;5035079;28;20044;-75
2021/11/09 02:37:23;;;;;;;15.18;6.80;;;8.30;82.60;;;;;;5039410;28;20024;-75
2021/11/09 02:39:48;;;;;;;11.52;6.30;;;8.20;82.60;;;;;;5033623;28;20026;-75
2021/11/09 02:42:17;;;;;;;13.10;6.00;;;8.20;82.60;;;;;;5031275;28;20025;-75
2021/11/09 02:44:57;;;;;;;14.70;6.65;;;8.20;82.60;;;;;;5069753;28;20025;-75
2021/11/09 02:47:24;;;;;;;11.98;6.50;;;8.20;82.70;;;;;;5017236;28;20045;-77
2021/11/09 02:52:16;;;;;;;12.02;6.32;;;8.10;82.90;;;;;;5022111;28;20389;-76
2021/11/09 02:54:44;;;;;;;9.48;5.07;;;8.00;83.00;;;;;;5016277;28;20105;-76
2021/11/09 02:57:21;;;;;;;13.48;6.20;;;8.00;83.00;;;;;;5038181;28;20545;-76
2021/11/09 02:59:59;;;;;;;7.57;4.10;;;8.00;83.00;;;;;;5027657;28;20032;-77
2021/11/09 03:07:28;;;;;;;10.48;4.32;;;8.00;82.90;;;;;;5029036;28;20160;-77
2021/11/09 03:10:02;;;;;;;11.77;4.80;;;8.10;83.10;;;;;;5043812;28;20040;-76
2021/11/09 03:12:32;;;;;;;12.27;5.53;;;8.00;83.10;;;;;;5033942;28;20025;-76
2021/11/09 03:14:58;;;;;;;9.07;5.30;;;8.00;83.20;;;;;;5063705;28;20488;-76
2021/11/09 03:17:24;;;;;;;11.32;5.18;;;8.10;83.10;;;;;;5033439;28;20029;-77
2021/11/09 03:44:22;;;;;;;9.05;4.57;;;8.10;82.90;;;;;;5044930;28;20044;-75
2021/11/09 03:47:02;;;;;;;9.20;4.90;;;8.00;82.80;;;;;;5025412;28;20080;-74
2021/11/09 03:49:30;;;;;;;10.07;4.75;;;8.00;82.90;;;;;;5030218;28;20025;-75
2021/11/09 03:51:58;;;;;;;10.85;5.65;;;8.00;83.00;;;;;;5035017;28;20037;-74
2021/11/09 03:54:27;;;;;;;9.40;5.22;;;8.00;82.70;;;;;;5033798;28;20043;-74
2021/11/09 03:57:04;;;;;;;10.02;5.30;;;7.90;82.80;;;;;;5043257;28;20044;-74
2021/11/09 04:04:36;;;;;;;14.20;6.25;;;7.80;82.80;;;;;;5032083;28;20080;-77
2021/11/09 04:09:44;;;;;;;14.15;6.13;;;7.70;83.00;;;;;;5037247;28;20066;-76
2021/11/09 04:37:06;;;;;;;11.05;5.43;;;7.60;83.10;;;;;;5027521;28;20057;-76
2021/11/09 04:42:37;;;;;;;13.65;6.57;;;7.50;83.10;;;;;;5029796;28;20033;-77
2021/11/09 04:50:41;;;;;;;11.18;5.47;;;7.40;83.20;;;;;;5043625;28;20090;-75
2021/11/09 05:11:34;;;;;;;12.95;6.82;;;7.40;83.20;;;;;;5037034;28;20149;-76
2021/11/09 05:14:00;;;;;;;14.82;7.57;;;7.40;83.30;;;;;;5033449;28;20810;-77
2021/11/09 05:16:25;;;;;;;14.50;6.97;;;7.40;83.30;;;;;;5022591;28;20116;-77
2021/11/09 05:18:51;;;;;;;19.08;8.05;;;7.30;83.40;;;;;;5032639;28;20167;-77
2021/11/09 05:21:16;;;;;;;16.98;7.00;;;7.30;83.40;;;;;;5024465;28;20029;-76
2021/11/09 05:23:42;;;;;;;11.80;6.78;;;7.30;83.40;;;;;;5035673;28;20037;-77
2021/11/09 05:26:08;;;;;;;15.45;7.05;;;7.30;83.40;;;;;;5033773;28;20053;-77
2021/11/09 05:28:33;;;;;;;10.82;5.78;;;7.30;83.40;;;;;;5026927;28;20036;-77
2021/11/09 05:30:59;;;;;;;12.32;6.90;;;7.30;83.50;;;;;;5033139;28;20111;-76
2021/11/09 05:33:25;;;;;;;13.18;7.00;;;7.30;83.40;;;;;;5031114;28;20117;-76
2021/11/09 05:35:51;;;;;;;12.38;7.15;;;7.30;83.40;;;;;;5028824;28;20477;-75
2021/11/09 05:38:24;;;;;;;15.73;7.32;;;7.30;84.00;;;;;;5033615;28;20087;-75
2021/11/09 05:40:57;;;;;;;15.07;7.20;;;7.30;83.50;;;;;;5026076;28;20056;-76
2021/11/09 05:43:22;;;;;;;13.38;6.80;;;7.30;83.60;;;;;;5032229;28;20021;-75
2021/11/09 05:45:49;;;;;;;11.45;6.25;;;7.30;83.60;;;;;;5022704;28;20021;-75
2021/11/09 05:48:15;;;;;;;13.32;7.30;;;7.30;83.50;;;;;;5034149;28;20025;-75
2021/11/09 05:50:42;;;;;;;12.45;6.75;;;7.30;83.60;;;;;;5041005;28;20053;-75
2021/11/09 05:53:07;;;;;;;14.07;6.80;;;7.30;83.60;;;;;;5024836;28;20088;-75
2021/11/09 05:55:33;;;;;;;14.40;7.90;;;7.30;83.60;;;;;;5025561;28;20068;-75
2021/11/09 05:57:58;;;;;;;13.23;7.07;;;7.30;83.60;;;;;;5027218;28;20446;-75
2021/11/09 06:00:24;;;;;;;16.98;7.25;;;7.30;83.60;;;;;;5032507;28;20025;-74
2021/11/09 06:02:50;;;;;;;14.27;7.43;;;7.20;83.60;;;;;;5035032;28;20468;-74
2021/11/09 06:05:15;;;;;;;12.93;7.50;;;7.20;83.60;;;;;;5029364;28;20021;-75
2021/11/09 06:07:41;;;;;;;13.95;6.30;;;7.20;83.70;;;;;;5013975;28;20053;-75
2021/11/09 06:10:07;;;;;;;13.45;6.63;;;7.20;83.70;;;;;;5031295;28;20046;-75
2021/11/09 06:12:34;;;;;;;14.18;6.78;;;7.20;83.80;;;;;;5020108;28;20059;-76
2021/11/09 06:15:00;;;;;;;12.48;5.90;;;7.20;83.80;;;;;;5033317;28;20033;-77
2021/11/09 06:17:25;;;;;;;14.10;7.03;;;7.20;83.80;;;;;;5035968;28;20460;-76
2021/11/09 06:19:51;;;;;;;12.98;7.00;;;7.20;83.70;;;;;;5019453;28;20045;-76
2021/11/09 06:22:17;;;;;;;15.30;6.28;;;7.20;83.70;;;;;;5028864;28;20036;-75
2021/11/09 06:24:42;;;;;;;11.82;6.43;;;7.20;83.80;;;;;;5012124;28;20026;-77
2021/11/09 06:27:08;;;;;;;11.27;6.60;;;7.20;83.70;;;;;;5033138;28;20030;-75
2021/11/09 06:29:36;;;;;;;12.63;6.88;;;7.20;83.70;;;;;;5021334;28;20476;-75
2021/11/09 06:32:02;;;;;;;11.30;6.07;;;7.20;83.70;;;;;;5024028;28;20444;-75
2021/11/09 06:34:27;;;;;;;10.48;5.32;;;7.20;83.70;;;;;;5034231;28;20087;-75
2021/11/09 06:36:53;;;;;;;12.40;6.30;;;7.20;83.70;;;;;;5034652;28;20029;-76
2021/11/09 06:39:19;;;;;;;15.50;7.32;;;7.20;83.70;;;;;;5023890;28;20021;-78
2021/11/09 06:41:45;;;;;;;14.43;7.25;;;7.20;83.60;;;;;;5039947;28;20025;-78
2021/11/09 06:44:11;;;;;;;14.32;7.28;;;7.20;83.70;;;;;;5018946;28;20034;-78
2021/11/09 06:46:36;;;;;;;14.38;7.60;;;7.20;83.70;;;;;;5023932;28;20029;-77
2021/11/09 06:49:02;;;;;;;13.93;6.97;;;7.10;83.70;;;;;;5033236;28;20030;-78
2021/11/09 06:51:28;;;;;;;11.20;6.30;;;7.10;83.80;;;;;;5030113;28;20033;-78
2021/11/09 06:53:53;;;;;;;17.15;6.72;;;7.10;83.80;;;;;;5025623;28;20061;-78
2021/11/09 06:56:19;;;;;;;14.60;7.10;;;7.10;83.80;;;;;;5015122;28;20048;-78
2021/11/09 06:58:45;;;;;;;14.05;6.72;;;7.10;83.90;;;;;;5025212;28;20029;-78
2021/11/09 07:01:10;;;;;;;10.75;5.93;;;7.10;83.90;;;;;;5038895;28;20030;-78
2021/11/09 07:03:36;;;;;;;15.38;7.32;;;7.10;83.80;;;;;;5014101;28;20018;-77
2021/11/09 07:06:04;;;;;;;14.85;6.90;;;7.10;83.70;;;;;;5014842;28;20508;-76
2021/11/09 07:08:31;;;;;;;12.63;7.13;;;7.20;83.80;;;;;;5030678;28;20108;-76
2021/11/09 07:10:57;;;;;;;17.20;8.70;;;7.10;83.80;;;;;;5030185;28;20029;-76
2021/11/09 07:13:22;;;;;;;13.90;7.05;;;7.20;83.90;;;;;;5034155;28;20505;-75
2021/11/09 07:15:48;;;;;;;15.75;8.48;;;7.20;83.90;;;;;;5031059;28;20045;-75
2021/11/09 07:18:14;;;;;;;15.93;8.20;;;7.20;83.80;;;;;;5039358;28;20158;-75
2021/11/09 07:20:40;;;;;;;17.95;8.60;;;7.20;83.90;;;;;;5029863;28;20112;-75
2021/11/09 07:23:06;;;;;;;15.50;8.23;;;7.20;83.90;;;;;;5045785;28;20025;-73
2021/11/09 07:25:31;;;;;;;16.83;8.02;;;7.20;83.80;;;;;;5037538;28;20017;-75
2021/11/09 07:27:58;;;;;;;12.98;7.75;;;7.20;83.90;;;;;;5011961;28;20045;-78
2021/11/09 07:30:28;;;;;;;15.07;7.28;;;7.20;84.00;;;;;;5028289;28;20026;-74
2021/11/09 07:32:54;;;;;;;14.35;6.50;;;7.20;83.90;;;;;;5025144;28;20209;-75
2021/11/09 07:35:19;;;;;;;24.67;10.38;;;7.20;83.90;;;;;;5026639;28;20034;-74
2021/11/09 07:37:45;;;;;;;17.70;8.85;;;7.20;83.90;;;;;;5025243;28;20129;-75
2021/11/09 07:40:12;;;;;;;15.02;7.25;;;7.30;84.00;;;;;;5028061;28;20026;-75
2021/11/09 07:42:47;;;;;;;11.32;5.38;;;7.20;83.90;;;;;;5024122;28;20026;-74
2021/11/09 07:45:15;;;;;;;15.30;7.20;;;7.30;84.00;;;;;;5017147;28;20480;-74
2021/11/09 07:47:40;;;;;;;19.25;8.77;;;7.30;83.90;;;;;;5014833;28;20057;-74
2021/11/09 07:50:06;;;;;;;16.38;8.20;;;7.30;83.90;;;;;;5024345;28;20419;-75
2021/11/09 07:52:32;;;;;;;14.20;7.72;;;7.30;84.00;;;;;;5020841;28;20034;-74
2021/11/09 07:55:02;;;;;;;21.38;7.47;;;7.30;84.00;;;;;;5017417;28;20087;-74
2021/11/09 07:57:31;;;;;;;18.98;8.73;;;7.40;84.00;;;;;;5025284;28;20017;-74
2021/11/09 08:00:02;;;;;;;18.10;7.60;;;7.40;84.00;;;;;;5028075;28;20766;-75
2021/11/09 08:02:33;;;;;;;12.27;6.75;;;7.40;84.10;;;;;;5033872;28;20025;-74
2021/11/09 08:05:04;;;;;;;15.50;7.60;;;7.50;84.10;;;;;;5028987;28;20021;-75
2021/11/09 08:07:32;;;;;;;17.92;7.93;;;7.50;84.10;;;;;;5023565;28;20109;-74
2021/11/09 08:09:58;;;;;;;23.75;9.80;;;7.50;84.10;;;;;;5031616;28;20036;-74
2021/11/09 08:12:24;;;;;;;18.70;8.82;;;7.60;84.20;;;;;;5029130;28;20053;-74
2021/11/09 08:14:50;;;;;;;18.15;8.40;;;7.50;84.10;;;;;;5029625;28;20057;-74
2021/11/09 08:17:16;;;;;;;17.52;7.93;;;7.60;84.20;;;;;;5031310;28;20029;-74
2021/11/09 08:19:42;;;;;;;14.63;7.82;;;7.60;84.20;;;;;;5031652;28;20017;-74
2021/11/09 08:22:08;;;;;;;15.18;7.55;;;7.60;84.20;;;;;;5030765;28;20030;-74
2021/11/09 08:24:34;;;;;;;18.15;7.88;;;7.70;84.30;;;;;;5030756;28;20060;-74
2021/11/09 08:27:04;;;;;;;12.00;5.88;;;7.70;84.20;;;;;;5028448;28;20060;-74
2021/11/09 08:29:30;;;;;;;14.60;7.28;;;7.70;84.20;;;;;;5033726;28;20021;-74
2021/11/09 08:31:57;;;;;;;21.35;9.73;;;7.80;84.20;;;;;;5030753;28;20031;-74
2021/11/09 08:34:26;;;;;;;17.92;7.90;;;7.80;84.20;;;;;;5031806;28;20428;-74
2021/11/09 08:36:52;;;;;;;25.58;11.25;;;7.80;84.30;;;;;;5030648;28;20052;-74
2021/11/09 08:39:24;;;;;;;22.48;9.50;;;7.80;84.30;;;;;;5031749;28;20030;-74
2021/11/09 08:41:59;;;;;;;12.00;6.15;;;7.80;84.60;;;;;;5026687;28;20033;-74
2021/11/09 08:44:29;;;;;;;19.83;8.68;;;7.90;84.60;;;;;;5031834;28;20033;-74
2021/11/09 08:46:58;;;;;;;19.27;10.07;;;7.90;84.50;;;;;;5031463;28;20036;-75
2021/11/09 08:49:27;;;;;;;19.80;9.13;;;8.00;84.60;;;;;;5031347;28;20384;-74
2021/11/09 08:51:54;;;;;;;19.08;7.80;;;8.00;84.60;;;;;;5030174;28;20034;-74
2021/11/09 08:54:28;;;;;;;18.00;7.80;;;8.10;84.50;;;;;;5022237;28;20018;-73
2021/11/09 09:05:09;;;;;;;14.90;7.68;;;8.30;84.20;;;;;;5020953;28;20068;-75
2021/11/09 09:07:35;;;;;;;15.85;7.90;;;8.40;84.10;;;;;;5026024;28;20052;-73
2021/11/09 09:10:01;;;;;;;18.75;8.65;;;8.50;84.10;;;;;;5023426;28;20057;-74
2021/11/09 09:12:29;;;;;;;18.10;8.23;;;8.50;84.10;;;;;;5031998;28;20141;-74
2021/11/09 09:14:56;;;;;;;17.40;7.03;;;8.60;84.00;;;;;;5019967;28;20038;-75
2021/11/09 09:17:22;;;;;;;18.35;8.30;;;8.60;83.90;;;;;;5032891;28;20040;-74
2021/11/09 09:20:11;;;;;;;15.27;7.68;;;8.70;83.90;;;;;;5023690;28;20393;-73
2021/11/09 09:22:51;;;;;;;23.90;9.60;;;8.70;84.20;;;;;;5030647;28;20025;-75
2021/11/09 09:25:26;;;;;;;16.08;8.00;;;8.80;83.70;;;;;;5035738;28;20376;-74
2021/11/09 09:28:22;;;;;;;14.50;6.97;;;8.90;83.70;;;;;;5015462;28;20033;-75
2021/11/09 09:31:13;;;;;;;19.10;8.32;;;8.90;83.60;;;;;;5033940;28;20477;-75
2021/11/09 09:53:10;;;;;;;16.55;7.50;;;9.40;82.50;;;;;;5024084;28;20132;-74
2021/11/09 09:55:41;;;;;;;16.23;7.63;;;9.40;82.30;;;;;;5057893;28;20334;-76
2021/11/09 09:58:11;;;;;;;13.80;7.00;;;9.40;82.10;;;;;;5024631;28;20037;-76
2021/11/09 10:00:38;;;;;;;17.65;6.75;;;9.50;82.10;;;;;;5025215;28;20026;-76
2021/11/09 10:03:04;;;;;;;15.73;7.53;;;9.60;82.10;;;;;;5019785;28;20029;-75
2021/11/09 10:05:35;;;;;;;12.70;6.60;;;9.60;81.80;;;;;;5011648;28;20064;-75
2021/11/09 10:08:10;;;;;;;17.15;6.57;;;9.70;81.70;;;;;;5024481;28;20108;-74
2021/11/09 10:10:35;;;;;;;15.32;7.60;;;9.70;81.50;;;;;;5017471;28;20042;-74
2021/11/09 10:13:09;;;;;;;15.20;8.18;;;9.70;81.30;;;;;;5022983;28;20029;-77
2021/11/09 10:15:43;;;;;;;19.90;8.25;;;9.80;81.10;;;;;;5017230;28;20052;-77
2021/11/09 10:18:15;;;;;;;18.63;9.25;;;9.90;80.90;;;;;;5024373;28;20084;-76
2021/11/09 10:20:46;;;;;;;16.70;7.63;;;10.00;80.60;;;;;;5022614;28;20053;-74
2021/11/09 10:23:17;;;;;;;18.88;9.43;;;10.00;80.40;;;;;;5022021;28;20049;-73
2021/11/09 10:25:44;;;;;;;23.80;11.10;;;10.00;80.20;;;;;;5025650;28;20026;-74
2021/11/09 10:28:17;;;;;;;24.75;11.40;;;10.10;79.70;;;;;;5024623;28;20029;-76
2021/11/09 10:30:50;;;;;;;20.77;10.40;;;10.10;79.30;;;;;;5026164;28;20468;-76
2021/11/09 10:33:19;;;;;;;23.30;10.52;;;10.20;79.30;;;;;;5032129;28;20029;-75
2021/11/09 10:35:46;;;;;;;23.58;11.73;;;10.30;79.10;;;;;;5015047;28;20041;-76
2021/11/09 10:38:12;;;;;;;20.92;10.10;;;10.30;79.00;;;;;;5026484;28;20511;-75
2021/11/09 10:40:49;;;;;;;21.52;10.15;;;10.40;78.80;;;;;;5036144;28;20024;-75
2021/11/09 10:43:17;;;;;;;18.20;8.05;;;10.40;78.50;;;;;;5030385;28;20025;-76
2021/11/09 10:45:43;;;;;;;16.73;6.90;;;10.50;78.50;;;;;;5021275;28;20061;-76
2021/11/09 10:48:15;;;;;;;13.32;6.45;;;10.50;78.30;;;;;;5032324;28;20056;-76
2021/11/09 10:50:47;;;;;;;14.82;7.05;;;10.60;78.20;;;;;;5027888;28;20116;-76
2021/11/09 10:56:17;;;;;;;15.98;6.75;;;10.70;77.50;;;;;;5014609;28;20693;-76
2021/11/09 11:04:02;;;;;;;13.32;6.40;;;10.90;77.00;;;;;;5025502;28;20605;-76
2021/11/09 11:06:33;;;;;;;17.10;7.80;;;10.90;76.70;;;;;;5019103;28;20021;-77
2021/11/09 11:09:11;;;;;;;16.27;6.57;;;11.00;76.40;;;;;;5023707;28;20039;-78
2021/11/09 11:11:44;;;;;;;21.77;8.82;;;11.00;76.30;;;;;;5014332;28;20113;-76
2021/11/09 11:14:17;;;;;;;;;;;11.00;75.90;;;;;;5010286;28;20040;-79
2021/11/09 11:16:54;;;;;;;16.38;7.20;;;11.10;75.70;;;;;;5017557;28;19932;-77
2021/11/09 11:19:53;;;;;;;16.58;6.18;;;11.10;75.80;;;;;;5023014;28;20022;-76
2021/11/09 11:22:23;;;;;;;15.73;7.32;;;11.20;75.80;;;;;;5019819;28;20041;-77
2021/11/09 11:24:52;;;;;;;15.93;6.90;;;11.30;75.60;;;;;;5019229;28;20017;-77
2021/11/09 11:27:19;;;;;;;15.68;6.68;;;11.30;75.60;;;;;;5018444;28;20025;-77
2021/11/09 11:29:45;;;;;;;15.95;6.25;;;11.40;75.50;;;;;;5054395;28;20426;-77
2021/11/09 11:32:15;;;;;;;16.10;7.07;;;11.40;75.30;;;;;;5025514;28;20525;-77
2021/11/09 11:34:41;;;;;;;13.20;6.22;;;11.50;75.30;;;;;;5017587;28;20038;-75
2021/11/09 11:37:09;;;;;;;12.98;6.20;;;11.50;75.10;;;;;;5020115;28;20033;-76
2021/11/09 11:39:36;;;;;;;15.80;7.00;;;11.60;75.30;;;;;;5018097;28;20051;-76
2021/11/09 11:42:08;;;;;;;12.82;5.32;;;11.70;75.90;;;;;;5019374;28;20403;-75
2021/11/09 11:44:37;;;;;;;14.18;5.47;;;11.90;75.50;;;;;;5028089;28;20402;-75
2021/11/09 11:47:10;;;;;;;13.00;6.30;;;12.10;74.60;;;;;;5028741;28;20981;-75
2021/11/09 11:49:41;;;;;;;14.68;5.57;;;12.20;74.00;;;;;;5027910;28;20025;-76
2021/11/09 11:52:24;;;;;;;13.18;5.85;;;12.50;73.40;;;;;;5028452;28;20026;-76
2021/11/09 11:54:57;;;;;;;12.85;6.13;;;12.70;72.70;;;;;;5026933;28;20057;-76
2021/11/09 11:57:32;;;;;;;16.63;6.07;;;12.90;72.20;;;;;;5025606;28;20021;-76
2021/11/09 11:59:58;;;;;;;20.50;7.85;;;13.00;71.10;;;;;;5026198;28;20353;-75
2021/11/09 12:02:38;;;;;;;11.63;4.90;;;13.00;70.20;;;;;;5029458;28;20044;-76
2021/11/09 12:05:07;;;;;;;16.92;6.50;;;12.90;70.50;;;;;;5030908;28;20083;-74
2021/11/09 12:07:52;;;;;;;16.42;6.45;;;12.80;70.80;;;;;;5029644;28;20554;-75
2021/11/09 12:10:18;;;;;;;18.15;7.45;;;12.80;71.40;;;;;;5027521;28;20029;-76
2021/11/09 12:12:59;;;;;;;13.52;5.90;;;12.80;70.70;;;;;;5031950;28;20036;-74
2021/11/09 12:15:43;;;;;;;16.38;7.28;;;13.10;69.80;;;;;;5026026;28;20515;-75
2021/11/09 12:18:27;;;;;;;12.40;5.32;;;13.30;68.60;;;;;;5030187;28;20076;-74
2021/11/09 12:21:00;;;;;;;13.23;5.85;;;13.50;68.30;;;;;;5027331;28;20030;-76
2021/11/09 12:23:27;;;;;;;12.20;5.70;;;13.70;67.80;;;;;;5027181;28;20047;-74
2021/11/09 12:25:53;;;;;;;12.05;5.75;;;13.90;67.40;;;;;;5028088;28;20034;-73
2021/11/09 12:28:33;;;;;;;15.60;6.22;;;14.10;66.70;;;;;;5029718;28;20025;-74
2021/11/09 12:30:59;;;;;;;15.00;6.28;;;14.30;65.80;;;;;;5024535;28;20650;-73
2021/11/09 12:33:36;;;;;;;11.40;5.07;;;14.40;64.40;;;;;;5031461;28;20427;-73
2021/11/09 12:36:02;;;;;;;12.65;6.13;;;14.80;64.00;;;;;;5030327;28;20522;-74
2021/11/09 12:38:41;;;;;;;18.23;6.65;;;14.90;62.90;;;;;;5028944;28;20096;-74
2021/11/09 12:41:16;;;;;;;15.27;6.07;;;15.10;62.30;;;;;;5024176;28;20573;-73
2021/11/09 12:43:44;;;;;;;16.00;6.22;;;15.40;62.00;;;;;;5045940;28;20030;-76
2021/11/09 12:46:27;;;;;;;20.17;6.78;;;15.40;61.80;;;;;;5030065;28;20108;-74
2021/11/09 12:48:58;;;;;;;14.45;5.40;;;15.30;61.70;;;;;;5026478;28;20033;-73
2021/11/09 12:51:28;;;;;;;15.57;6.50;;;15.00;62.50;;;;;;5026338;28;20029;-75
2021/11/09 12:54:00;;;;;;;15.95;6.80;;;14.70;63.40;;;;;;5030553;28;20033;-74
2021/11/09 12:56:33;;;;;;;16.80;6.38;;;14.30;64.30;;;;;;5026400;28;20029;-74
2021/11/09 12:59:07;;;;;;;10.98;4.90;;;13.90;65.40;;;;;;5028356;28;20025;-74
2021/11/09 13:04:33;;;;;;;18.13;7.35;;;13.40;66.80;;;;;;5028877;28;20040;-74
2021/11/09 13:07:12;;;;;;;18.83;6.32;;;13.30;67.00;;;;;;5030100;28;20039;-74
2021/11/09 13:09:49;;;;;;;17.55;7.03;;;13.20;67.50;;;;;;5027095;28;20030;-76
2021/11/09 13:12:22;;;;;;;9.35;4.85;;;13.10;67.30;;;;;;5026466;28;20415;-75
2021/11/09 13:14:54;;;;;;;14.77;6.13;;;13.10;67.70;;;;;;5022866;28;20082;-74
2021/11/09 13:17:21;;;;;;;11.15;5.05;;;13.10;67.90;;;;;;5027523;28;20037;-73
2021/11/09 13:19:57;;;;;;;11.15;6.07;;;13.20;68.30;;;;;;5025168;28;20116;-74
2021/11/09 13:22:29;;;;;;;14.45;6.20;;;13.10;67.90;;;;;;5027549;28;20064;-74
2021/11/09 13:24:59;;;;;;;10.43;5.40;;;13.20;68.30;;;;;;5027294;28;20056;-74
2021/11/09 13:27:43;;;;;;;18.83;6.53;;;13.20;68.40;;;;;;5027795;28;20029;-74
2021/11/09 13:30:17;;;;;;;17.75;7.05;;;13.30;68.30;;;;;;5027957;28;20034;-76
2021/11/09 13:32:46;;;;;;;15.07;6.07;;;13.10;67.20;;;;;;5028924;28;20376;-75
2021/11/09 13:35:28;;;;;;;17.98;7.18;;;13.10;68.30;;;;;;5027689;28;20091;-76
2021/11/09 13:38:13;;;;;;;19.25;7.00;;;13.10;67.60;;;;;;5029513;28;20495;-75
2021/11/09 13:40:48;;;;;;;15.90;7.13;;;13.00;67.50;;;;;;5029382;28;20028;-76
2021/11/09 13:43:17;;;;;;;14.30;7.18;;;13.00;67.50;;;;;;5018395;28;20034;-76
2021/11/09 13:45:42;;;;;;;14.98;6.40;;;12.90;67.50;;;;;;5018750;28;20409;-75
2021/11/09 13:48:15;;;;;;;14.57;6.93;;;12.80;67.70;;;;;;5034670;28;20034;-76
2021/11/09 13:50:42;;;;;;;11.48;5.75;;;12.80;67.80;;;;;;5034071;28;20029;-78
2021/11/09 13:53:08;;;;;;;14.55;6.80;;;12.70;67.60;;;;;;5024971;28;20080;-75
2021/11/09 13:55:36;;;;;;;17.52;6.75;;;12.70;67.80;;;;;;5021888;28;20543;-76
2021/11/09 13:58:03;;;;;;;16.95;6.80;;;12.60;67.80;;;;;;5024744;28;20109;-74
2021/11/09 14:00:35;;;;;;;12.10;5.60;;;12.60;68.00;;;;;;5017275;28;20060;-76
2021/11/09 14:03:13;;;;;;;;;;;12.60;68.20;;;;;;5021746;28;20022;-76
2021/11/09 14:16:39;;;;;;;15.77;5.65;;;12.40;68.80;;;;;;5027485;28;20570;-74
2021/11/09 14:19:11;;;;;;;15.00;5.80;;;12.40;68.90;;;;;;5018246;28;20022;-77
2021/11/09 14:21:44;;;;;;;;;;;12.30;68.60;;;;;;5036076;28;20037;-76
2021/11/09 14:24:18;;;;;;;10.60;4.53;;;12.30;68.80;;;;;;5024261;28;20905;-76
2021/11/09 14:26:46;;;;;;;16.25;5.95;;;12.30;69.20;;;;;;5020778;28;20041;-75
2021/11/09 14:29:24;;;;;;;11.57;4.60;;;12.30;68.90;;;;;;5019955;28;20809;-75
2021/11/09 14:31:58;;;;;;;18.25;7.10;;;12.30;69.10;;;;;;5028071;28;20083;-74
2021/11/09 14:34:26;;;;;;;14.65;5.65;;;12.30;68.60;;;;;;5019994;28;20040;-75
2021/11/09 14:36:54;;;;;;;13.32;5.05;;;12.30;68.70;;;;;;5022873;28;20060;-75
2021/11/09 14:39:27;;;;;;;10.43;4.22;;;12.30;68.80;;;;;;5026144;28;20056;-76
2021/11/09 14:44:49;;;;;;;10.82;4.15;;;12.30;69.00;;;;;;5022514;28;20124;-76
2021/11/09 14:47:19;;;;;;;8.45;3.72;;;12.30;69.10;;;;;;5018858;28;20361;-76
2021/11/09 14:49:56;;;;;;;12.68;4.53;;;12.30;69.20;;;;;;5024040;28;20094;-77
2021/11/09 14:52:25;;;;;;;13.02;4.88;;;12.30;69.10;;;;;;5026035;28;20025;-76
2021/11/09 14:54:55;;;;;;;11.07;4.25;;;12.30;69.10;;;;;;5026198;28;20100;-75
2021/11/09 14:57:32;;;;;;;12.27;4.95;;;12.30;69.10;;;;;;5023854;28;20055;-74
2021/11/09 15:00:03;;;;;;;10.20;4.18;;;12.20;69.00;;;;;;5030607;28;20029;-75
2021/11/09 15:02:28;;;;;;;11.60;3.70;;;12.30;69.30;;;;;;5026317;28;20033;-77
2021/11/09 15:04:55;;;;;;;9.73;4.40;;;12.30;69.30;;;;;;5026593;28;20099;-74
2021/11/09 15:07:25;;;;;;;13.32;5.25;;;12.30;69.30;;;;;;5021715;28;20377;-76
2021/11/09 15:29:13;;;;;;;11.00;3.65;;;12.20;69.40;;;;;;5030155;28;20030;-76
2021/11/09 15:34:25;;;;;;;11.25;3.90;;;12.20;69.40;;;;;;5032312;28;20042;-75
2021/11/09 15:36:59;;;;;;;10.30;3.88;;;12.20;69.40;;;;;;5028335;28;20036;-75
2021/11/09 15:39:27;;;;;;;9.82;3.88;;;12.20;69.60;;;;;;5030638;28;20109;-75
2021/11/09 15:41:53;;;;;;;8.13;3.45;;;12.20;69.70;;;;;;5034581;28;20087;-75